Annapolis Royal, Canada
Current Conditions -  °F | °C
As of 8:00 PM on Saturday 22 Nov 2014 (Local Time) from CYZX Reporting Station
Overcast Overcast  
Wind Chill: 29°   Ceiling: 2700
Heat Index: 37°   Visibility: 15mi
Dew Point: 30°   Wind: 13mph
Humidity: 75%   Direction: 220°SW
Pressure: 29.94"   Gusts: 18mph
Location:  44.73°N, 65.52°W
Report Text: CYZX 230000Z 22011G16KT 15SM OVC027 03/M01 A2994 RMK SC8 WNDY HILL 24011G17KT SLP139
Loading
Personal Weather Stations






























Interactive Weather Map New forecast layout! Learn more

10-Day Weather Forecast

Advertisements
Track Severe Weather on mobile